METAR Data
IDs: Format: Raw Decoded Include TAF

Data at: 2150 UTC 02 Aug 2021

PAKX 022135Z AUTO 26004KT 7SM CLR 22/10 A3003 RMK AO2